Time;durP1;ratioP1;P1;durP2;ratioP2;P2;SDS_P1;SDS_P2;PMS_P1;PMS_P2;Temp;Humidity;BMP_temperature;BMP_pressure;BME280_temperature;BME280_humidity;BME280_pressure;Samples;Min_cycle;Max_cycle;Signal;HPM_P1;HPM_P2
2022/02/18 00:00:48;;;;;;;9.90;2.67;;;7.60;99.90;;;;;;6233835;23;20180;-77
2022/02/18 00:03:15;;;;;;;11.80;2.53;;;7.60;99.90;;;;;;6234445;23;20260;-77
2022/02/18 00:05:43;;;;;;;9.23;2.57;;;7.60;99.90;;;;;;6235563;23;20209;-75
2022/02/18 00:08:10;;;;;;;7.07;2.50;;;7.60;99.90;;;;;;6234196;23;20443;-76
2022/02/18 00:10:38;;;;;;;4.67;1.77;;;7.70;99.90;;;;;;6234606;23;20606;-77
2022/02/18 00:13:05;;;;;;;7.97;2.30;;;7.70;99.90;;;;;;6234146;23;20571;-77
2022/02/18 00:15:31;;;;;;;13.73;2.77;;;7.70;99.90;;;;;;6234331;23;20173;-75
2022/02/18 00:18:01;;;;;;;12.17;2.80;;;7.70;99.90;;;;;;6233959;23;20474;-76
2022/02/18 00:20:28;;;;;;;9.47;2.27;;;7.70;99.90;;;;;;6234648;23;20170;-75
2022/02/18 00:22:55;;;;;;;7.17;2.70;;;7.70;99.90;;;;;;6235693;23;20181;-77
2022/02/18 00:25:22;;;;;;;11.60;2.80;;;7.70;99.90;;;;;;6234712;23;20602;-77
2022/02/18 00:27:50;;;;;;;10.00;3.10;;;7.80;99.90;;;;;;6233250;23;20879;-77
2022/02/18 00:30:17;;;;;;;12.27;3.13;;;7.80;99.90;;;;;;6234693;23;20923;-76
2022/02/18 00:32:44;;;;;;;13.20;3.80;;;7.80;99.90;;;;;;6234465;23;20451;-78
2022/02/18 00:35:10;;;;;;;14.83;3.63;;;7.70;99.90;;;;;;6232683;23;20588;-77
2022/02/18 00:37:37;;;;;;;9.80;2.80;;;7.70;99.90;;;;;;6234340;23;20170;-77
2022/02/18 00:40:05;;;;;;;12.03;2.80;;;7.70;99.90;;;;;;6233746;23;20173;-77
2022/02/18 00:42:32;;;;;;;10.50;3.57;;;7.70;99.90;;;;;;6233467;23;20176;-77
2022/02/18 00:45:00;;;;;;;11.20;2.70;;;7.60;99.90;;;;;;6233827;22;20185;-78
2022/02/18 00:47:27;;;;;;;8.73;2.87;;;7.60;99.90;;;;;;6233955;23;20825;-77
2022/02/18 00:49:54;;;;;;;17.70;3.67;;;7.50;99.90;;;;;;6233694;23;20200;-77
2022/02/18 00:52:20;;;;;;;16.13;3.90;;;7.60;99.90;;;;;;6234410;23;20173;-77
2022/02/18 00:54:47;;;;;;;19.70;3.10;;;7.60;99.90;;;;;;6234700;23;20197;-77
2022/02/18 00:57:14;;;;;;;18.83;4.53;;;7.60;99.90;;;;;;6233287;23;20659;-77
2022/02/18 00:59:41;;;;;;;18.33;4.13;;;7.60;99.90;;;;;;6233935;23;20405;-76
2022/02/18 01:02:09;;;;;;;23.63;4.50;;;7.60;99.90;;;;;;6234461;23;20201;-77
2022/02/18 01:04:37;;;;;;;17.00;4.00;;;7.60;99.90;;;;;;6234087;23;20166;-77
2022/02/18 01:07:05;;;;;;;23.03;4.23;;;7.60;99.90;;;;;;6234113;23;20195;-77
2022/02/18 01:09:32;;;;;;;29.90;5.23;;;7.60;99.90;;;;;;6233394;23;20204;-78
2022/02/18 01:11:59;;;;;;;23.40;5.30;;;7.60;99.90;;;;;;6233942;23;20233;-76
2022/02/18 01:14:26;;;;;;;20.27;5.17;;;7.60;99.90;;;;;;6234384;23;20184;-78
2022/02/18 01:16:53;;;;;;;26.77;5.47;;;7.60;99.90;;;;;;6233020;23;20173;-76
2022/02/18 01:19:22;;;;;;;26.60;4.57;;;7.60;99.90;;;;;;6234182;23;20170;-77
2022/02/18 01:21:48;;;;;;;39.80;6.03;;;7.70;99.90;;;;;;6233646;23;20177;-77
2022/02/18 01:24:15;;;;;;;18.73;4.20;;;7.70;99.90;;;;;;6234310;23;20180;-78
2022/02/18 01:26:42;;;;;;;20.40;4.03;;;7.80;99.90;;;;;;6233452;23;20178;-77
2022/02/18 01:29:10;;;;;;;21.60;5.27;;;7.80;99.90;;;;;;6234343;23;20178;-77
2022/02/18 01:31:37;;;;;;;20.80;4.30;;;7.80;99.90;;;;;;6233684;23;20169;-77
2022/02/18 01:34:04;;;;;;;19.13;4.07;;;7.80;99.90;;;;;;6234189;23;20174;-77
2022/02/18 01:36:32;;;;;;;16.03;4.57;;;7.80;99.90;;;;;;6234260;23;20180;-77
2022/02/18 01:38:59;;;;;;;26.63;6.10;;;7.80;99.90;;;;;;6232918;23;20177;-75
2022/02/18 01:41:26;;;;;;;18.33;4.10;;;7.80;99.90;;;;;;6233956;23;20176;-77
2022/02/18 01:43:55;;;;;;;21.43;4.63;;;7.80;99.90;;;;;;6233123;22;20184;-77
2022/02/18 01:46:23;;;;;;;17.80;4.80;;;7.80;99.90;;;;;;6232863;23;20181;-76
2022/02/18 01:48:51;;;;;;;21.30;4.60;;;7.80;99.90;;;;;;6233911;23;20184;-76
2022/02/18 01:51:19;;;;;;;23.10;5.43;;;7.90;99.90;;;;;;6233576;23;20916;-78
2022/02/18 01:53:49;;;;;;;25.83;7.00;;;7.90;99.90;;;;;;6232934;23;20180;-78
2022/02/18 01:56:17;;;;;;;21.97;5.70;;;7.80;99.90;;;;;;6234013;23;20204;-78
2022/02/18 01:58:44;;;;;;;21.17;6.53;;;7.80;99.90;;;;;;6233498;23;20173;-77
2022/02/18 02:01:11;;;;;;;24.20;6.07;;;7.80;99.90;;;;;;6234016;23;20562;-77
2022/02/18 02:03:39;;;;;;;23.70;5.40;;;7.80;99.90;;;;;;6233789;23;20205;-77
2022/02/18 02:06:07;;;;;;;23.73;5.50;;;7.80;99.90;;;;;;6233175;23;20231;-77
2022/02/18 02:08:36;;;;;;;22.70;4.70;;;7.80;99.90;;;;;;6233629;23;20570;-77
2022/02/18 02:11:05;;;;;;;17.77;4.20;;;7.80;99.90;;;;;;6233718;23;20192;-76
2022/02/18 02:13:34;;;;;;;26.27;4.30;;;7.90;99.90;;;;;;6233503;23;20180;-77
2022/02/18 02:16:02;;;;;;;20.80;5.00;;;7.80;99.90;;;;;;6232809;23;20732;-77
2022/02/18 02:18:29;;;;;;;21.43;4.77;;;7.80;99.90;;;;;;6234688;23;20196;-77
2022/02/18 02:20:56;;;;;;;21.07;5.00;;;7.80;99.90;;;;;;6233552;23;20173;-77
2022/02/18 02:23:24;;;;;;;18.93;4.30;;;7.80;99.90;;;;;;6233586;23;20180;-77
2022/02/18 02:25:51;;;;;;;15.73;4.57;;;7.80;99.90;;;;;;6233428;23;20577;-78
2022/02/18 02:28:18;;;;;;;21.53;4.40;;;7.80;99.90;;;;;;6233139;23;20179;-78
2022/02/18 02:30:45;;;;;;;26.20;5.07;;;7.80;99.90;;;;;;6233444;23;20598;-76
2022/02/18 02:33:12;;;;;;;16.87;4.90;;;7.80;99.90;;;;;;6233832;23;20763;-77
2022/02/18 02:35:38;;;;;;;25.03;5.77;;;7.80;99.90;;;;;;6233633;23;20177;-76
2022/02/18 02:38:06;;;;;;;26.57;5.83;;;7.80;99.90;;;;;;6233098;23;20184;-77
2022/02/18 02:40:34;;;;;;;29.43;5.17;;;7.80;99.90;;;;;;6233965;23;20169;-77
2022/02/18 02:43:01;;;;;;;26.83;6.03;;;7.80;99.90;;;;;;6232327;23;20180;-76
2022/02/18 02:45:28;;;;;;;28.70;4.83;;;7.80;99.90;;;;;;6234468;22;20193;-76
2022/02/18 02:47:55;;;;;;;26.83;5.60;;;7.80;99.90;;;;;;6233171;23;20181;-78
2022/02/18 02:50:21;;;;;;;25.20;4.97;;;7.90;99.90;;;;;;6233973;23;20197;-76
2022/02/18 02:52:48;;;;;;;22.87;5.40;;;7.80;99.90;;;;;;6233558;23;20173;-77
2022/02/18 02:55:15;;;;;;;19.60;4.47;;;7.90;99.90;;;;;;6232340;23;20172;-76
2022/02/18 02:57:44;;;;;;;20.10;4.60;;;7.90;99.90;;;;;;6233368;23;20169;-76
2022/02/18 03:00:13;;;;;;;28.60;5.50;;;7.90;99.90;;;;;;6232859;23;20170;-75
2022/02/18 03:02:40;;;;;;;32.30;5.90;;;7.90;99.90;;;;;;6232827;23;20220;-76
2022/02/18 03:05:08;;;;;;;28.60;6.67;;;7.90;99.90;;;;;;6233346;23;20445;-77
2022/02/18 03:07:35;;;;;;;20.87;4.20;;;7.90;99.90;;;;;;6233597;23;20519;-77
2022/02/18 03:10:02;;;;;;;23.03;4.67;;;7.90;99.90;;;;;;6232561;23;20967;-76
2022/02/18 03:12:29;;;;;;;22.60;5.40;;;7.90;99.90;;;;;;6233138;23;20180;-79
2022/02/18 03:14:57;;;;;;;30.47;5.10;;;7.90;99.90;;;;;;6233831;23;20173;-76
2022/02/18 03:17:25;;;;;;;29.70;6.43;;;7.90;99.90;;;;;;6232994;23;20174;-77
2022/02/18 03:19:51;;;;;;;34.93;6.37;;;7.90;99.90;;;;;;6232868;23;20772;-77
2022/02/18 03:22:19;;;;;;;31.97;6.30;;;7.90;99.90;;;;;;6233062;23;20829;-77
2022/02/18 03:24:46;;;;;;;30.17;5.97;;;8.00;99.90;;;;;;6232335;23;20570;-78
2022/02/18 03:27:13;;;;;;;26.90;5.60;;;8.00;99.90;;;;;;6233615;23;20177;-77
2022/02/18 03:29:40;;;;;;;27.67;6.23;;;8.00;99.90;;;;;;6233485;23;20188;-78
2022/02/18 03:32:09;;;;;;;36.73;6.47;;;8.00;99.90;;;;;;6232586;23;20204;-77
2022/02/18 03:34:36;;;;;;;29.63;6.10;;;8.00;99.90;;;;;;6233090;23;20186;-78
2022/02/18 03:37:03;;;;;;;39.07;7.80;;;8.10;99.90;;;;;;6232600;23;20845;-77
2022/02/18 03:39:30;;;;;;;34.40;6.43;;;8.10;99.90;;;;;;6234518;23;20173;-77
2022/02/18 03:41:57;;;;;;;36.83;6.80;;;8.10;99.90;;;;;;6234000;23;20180;-77
2022/02/18 03:44:24;;;;;;;35.17;7.93;;;8.10;99.90;;;;;;6232278;22;20895;-78
2022/02/18 03:46:51;;;;;;;40.07;8.23;;;8.10;99.90;;;;;;6232752;23;20516;-78
2022/02/18 03:49:19;;;;;;;51.20;9.80;;;8.20;99.90;;;;;;6232746;23;20496;-77
2022/02/18 03:51:46;;;;;;;38.03;8.77;;;8.10;99.90;;;;;;6235372;23;20205;-77
2022/02/18 03:54:13;;;;;;;41.43;8.40;;;8.20;99.90;;;;;;6235926;23;20173;-78
2022/02/18 03:56:40;;;;;;;36.73;7.80;;;8.20;99.90;;;;;;6234059;23;20177;-78
2022/02/18 03:59:09;;;;;;;38.10;7.67;;;8.20;99.90;;;;;;6234541;23;20177;-77
2022/02/18 04:01:36;;;;;;;48.90;8.80;;;8.20;99.90;;;;;;6235208;23;20170;-77
2022/02/18 04:04:03;;;;;;;40.67;7.97;;;8.10;99.90;;;;;;6234108;23;20200;-77
2022/02/18 04:06:31;;;;;;;51.87;7.90;;;8.10;99.90;;;;;;6234396;23;20173;-76
2022/02/18 04:08:58;;;;;;;40.23;8.03;;;8.10;99.90;;;;;;6234613;23;20562;-77
2022/02/18 04:11:25;;;;;;;36.37;7.73;;;8.10;99.90;;;;;;6235055;23;20856;-77
2022/02/18 04:13:51;;;;;;;43.00;7.83;;;8.10;99.90;;;;;;6233473;23;20276;-76
2022/02/18 04:16:18;;;;;;;41.07;8.77;;;8.20;99.90;;;;;;6235577;23;20181;-78
2022/02/18 04:18:45;;;;;;;37.20;7.60;;;8.20;99.90;;;;;;6234004;23;20633;-77
2022/02/18 04:21:11;;;;;;;33.17;8.17;;;8.10;99.90;;;;;;6233750;23;20173;-77
2022/02/18 04:23:40;;;;;;;38.70;6.70;;;8.10;99.90;;;;;;6234963;23;20173;-77
2022/02/18 04:26:06;;;;;;;30.53;6.40;;;8.10;99.90;;;;;;6234388;23;20201;-77
2022/02/18 04:28:34;;;;;;;31.77;6.60;;;8.00;99.90;;;;;;6234652;23;20207;-76
2022/02/18 04:31:01;;;;;;;25.70;6.00;;;8.00;99.90;;;;;;6233845;23;20334;-77
2022/02/18 04:33:28;;;;;;;28.33;5.97;;;8.00;99.90;;;;;;6234405;23;20173;-76
2022/02/18 04:35:55;;;;;;;35.37;5.77;;;8.00;99.90;;;;;;6234528;23;20228;-77
2022/02/18 04:38:22;;;;;;;34.50;6.67;;;7.90;99.90;;;;;;6235431;23;20173;-76
2022/02/18 04:40:50;;;;;;;35.70;7.00;;;7.90;99.90;;;;;;6234085;23;20184;-77
2022/02/18 04:43:17;;;;;;;32.07;7.00;;;7.90;99.90;;;;;;6234552;23;20423;-77
2022/02/18 04:45:43;;;;;;;25.70;6.20;;;7.90;99.90;;;;;;6234122;22;20196;-77
2022/02/18 04:48:10;;;;;;;27.43;6.20;;;7.90;99.90;;;;;;6234000;23;20747;-76
2022/02/18 04:50:37;;;;;;;31.27;6.67;;;7.80;99.90;;;;;;6234206;23;20189;-76
2022/02/18 04:53:04;;;;;;;31.10;6.53;;;7.80;99.90;;;;;;6233541;23;20176;-77
2022/02/18 04:55:30;;;;;;;35.63;7.13;;;7.80;99.90;;;;;;6234100;23;20177;-77
2022/02/18 04:57:58;;;;;;;32.93;5.97;;;7.80;99.90;;;;;;6234225;23;20169;-77
2022/02/18 05:00:25;;;;;;;35.97;7.27;;;7.80;99.90;;;;;;6234065;23;20173;-76
2022/02/18 05:02:52;;;;;;;29.23;6.93;;;7.80;99.90;;;;;;6232465;23;20205;-76
2022/02/18 05:05:19;;;;;;;33.63;8.27;;;7.80;99.90;;;;;;6235438;23;20442;-77
2022/02/18 05:07:46;;;;;;;46.63;10.13;;;7.80;99.90;;;;;;6233991;23;20211;-77
2022/02/18 05:10:13;;;;;;;28.20;7.00;;;7.80;99.90;;;;;;6233493;23;20177;-77
2022/02/18 05:12:40;;;;;;;34.13;8.90;;;7.80;99.90;;;;;;6235247;23;20177;-77
2022/02/18 05:15:09;;;;;;;37.63;8.13;;;7.80;99.90;;;;;;6234990;23;20174;-77
2022/02/18 05:17:36;;;;;;;46.07;8.40;;;7.80;99.90;;;;;;6236259;23;20173;-77
2022/02/18 05:20:03;;;;;;;31.33;8.10;;;7.90;99.90;;;;;;6233639;23;20740;-77
2022/02/18 05:22:30;;;;;;;32.90;7.00;;;7.90;99.90;;;;;;6234579;23;20169;-77
2022/02/18 05:24:57;;;;;;;34.10;7.77;;;7.90;99.90;;;;;;6234478;23;20196;-78
2022/02/18 05:27:24;;;;;;;41.37;8.47;;;7.90;99.90;;;;;;6235145;23;20185;-79
2022/02/18 05:29:51;;;;;;;39.73;7.03;;;7.80;99.90;;;;;;6233499;23;20173;-78
2022/02/18 05:32:19;;;;;;;36.30;7.10;;;7.90;99.90;;;;;;6233535;23;20193;-78
2022/02/18 05:34:45;;;;;;;41.23;9.53;;;7.80;99.90;;;;;;6234616;23;20177;-79
2022/02/18 05:37:13;;;;;;;35.57;8.10;;;7.90;99.90;;;;;;6233188;23;20664;-78
2022/02/18 05:39:39;;;;;;;38.77;8.03;;;7.90;99.90;;;;;;6234382;23;20528;-78
2022/02/18 05:42:07;;;;;;;42.87;8.00;;;7.90;99.90;;;;;;6234423;23;20169;-76
2022/02/18 05:44:34;;;;;;;35.80;8.37;;;7.90;99.90;;;;;;6233516;22;20222;-77
2022/02/18 05:47:01;;;;;;;39.30;8.10;;;7.90;99.90;;;;;;6233621;23;20440;-77
2022/02/18 05:49:30;;;;;;;47.27;9.80;;;7.90;99.90;;;;;;6234522;23;20824;-78
2022/02/18 05:51:57;;;;;;;40.33;10.27;;;7.90;99.90;;;;;;6232267;23;20727;-78
2022/02/18 05:54:25;;;;;;;46.83;9.47;;;7.90;99.90;;;;;;6234748;23;20184;-77
2022/02/18 05:56:52;;;;;;;47.50;9.70;;;7.90;99.90;;;;;;6233859;23;20181;-78
2022/02/18 05:59:19;;;;;;;33.73;8.87;;;7.90;99.90;;;;;;6233640;23;20192;-77
2022/02/18 06:01:46;;;;;;;34.17;9.27;;;7.90;99.90;;;;;;6233228;23;20177;-78
2022/02/18 06:04:13;;;;;;;36.10;10.60;;;7.90;99.90;;;;;;6234117;23;20189;-77
2022/02/18 06:06:42;;;;;;;38.90;9.53;;;7.90;99.90;;;;;;6232909;23;20173;-78
2022/02/18 06:09:10;;;;;;;44.73;9.10;;;7.90;99.90;;;;;;6233678;23;20166;-76
2022/02/18 06:11:37;;;;;;;48.67;10.50;;;7.90;99.90;;;;;;6234210;23;20217;-76
2022/02/18 06:14:04;;;;;;;45.13;9.13;;;7.90;99.90;;;;;;6232252;23;20173;-77
2022/02/18 06:16:31;;;;;;;37.43;7.33;;;7.90;99.90;;;;;;6233669;23;20934;-77
2022/02/18 06:18:58;;;;;;;41.23;8.57;;;7.90;99.90;;;;;;6232693;23;20782;-76
2022/02/18 06:21:25;;;;;;;39.53;7.77;;;7.90;99.90;;;;;;6234849;23;20174;-78
2022/02/18 06:23:53;;;;;;;48.37;7.50;;;7.90;99.90;;;;;;6233380;23;20169;-78
2022/02/18 06:26:20;;;;;;;35.30;7.00;;;7.90;99.90;;;;;;6233431;23;20173;-77
2022/02/18 06:28:47;;;;;;;36.20;8.33;;;7.90;99.90;;;;;;6233085;23;20423;-77
2022/02/18 06:31:15;;;;;;;35.80;8.17;;;7.90;99.90;;;;;;6233530;23;20200;-78
2022/02/18 06:33:45;;;;;;;35.37;7.53;;;7.90;99.90;;;;;;6232583;23;20173;-77
2022/02/18 06:36:12;;;;;;;31.20;7.80;;;7.90;99.90;;;;;;6232923;23;20248;-77
2022/02/18 06:38:40;;;;;;;30.40;6.70;;;7.90;99.90;;;;;;6234305;23;20177;-77
2022/02/18 06:41:08;;;;;;;30.80;6.73;;;7.90;99.90;;;;;;6232813;23;20177;-76
2022/02/18 06:43:35;;;;;;;40.33;7.27;;;7.90;99.90;;;;;;6234528;23;20178;-77
2022/02/18 06:46:01;;;;;;;33.40;7.40;;;7.90;99.90;;;;;;6232964;22;20190;-75
2022/02/18 06:48:28;;;;;;;29.67;8.60;;;7.90;99.90;;;;;;6234079;23;20177;-78
2022/02/18 06:50:55;;;;;;;37.17;6.77;;;8.00;99.90;;;;;;6233376;23;20193;-76
2022/02/18 06:53:22;;;;;;;31.90;7.13;;;8.00;99.90;;;;;;6233417;23;20166;-77
2022/02/18 06:55:48;;;;;;;30.70;7.50;;;8.00;99.90;;;;;;6232195;23;20177;-77
2022/02/18 06:58:16;;;;;;;37.70;8.27;;;8.00;99.90;;;;;;6234205;23;20243;-77
2022/02/18 07:00:44;;;;;;;35.73;7.27;;;8.00;99.90;;;;;;6233358;23;20177;-78
2022/02/18 07:03:10;;;;;;;32.80;6.83;;;8.00;99.90;;;;;;6228984;23;20217;-77
2022/02/18 07:05:37;;;;;;;28.70;7.93;;;8.00;99.90;;;;;;6233924;23;20180;-76
2022/02/18 07:08:04;;;;;;;26.87;7.47;;;8.00;99.90;;;;;;6232352;23;20181;-77
2022/02/18 07:10:31;;;;;;;30.60;7.23;;;8.00;99.90;;;;;;6234019;23;20176;-77
2022/02/18 07:12:59;;;;;;;25.43;6.90;;;8.00;99.90;;;;;;6233197;23;20250;-77
2022/02/18 07:15:27;;;;;;;25.43;8.27;;;8.10;99.90;;;;;;6233711;23;20173;-76
2022/02/18 07:17:55;;;;;;;25.03;8.47;;;8.10;99.90;;;;;;6232841;23;20169;-77
2022/02/18 07:20:23;;;;;;;22.53;8.17;;;8.10;99.90;;;;;;6233475;23;20212;-78
2022/02/18 07:22:50;;;;;;;21.73;7.73;;;8.10;99.90;;;;;;6233070;23;20177;-77
2022/02/18 07:25:18;;;;;;;28.83;9.97;;;8.10;99.90;;;;;;6233497;23;20169;-77
2022/02/18 07:27:45;;;;;;;24.87;8.97;;;8.10;99.90;;;;;;6235462;23;20792;-78
2022/02/18 07:30:12;;;;;;;23.23;8.73;;;8.10;99.90;;;;;;6234347;23;20211;-77
2022/02/18 07:32:41;;;;;;;20.00;9.13;;;8.20;99.90;;;;;;6235070;23;20204;-77
2022/02/18 07:35:09;;;;;;;23.30;9.40;;;8.20;99.90;;;;;;6235051;23;20652;-77
2022/02/18 07:37:36;;;;;;;22.40;10.03;;;8.20;99.90;;;;;;6234941;23;20172;-77
2022/02/18 07:40:03;;;;;;;19.87;10.70;;;8.20;99.90;;;;;;6233810;23;20184;-78
2022/02/18 07:42:30;;;;;;;28.77;12.07;;;8.20;99.90;;;;;;6234713;23;20173;-79
2022/02/18 07:44:56;;;;;;;30.03;11.00;;;8.20;99.90;;;;;;6235114;22;20888;-78
2022/02/18 07:47:23;;;;;;;26.90;12.20;;;8.20;99.90;;;;;;6235570;23;20180;-79
2022/02/18 07:49:51;;;;;;;21.03;12.13;;;8.20;99.90;;;;;;6235049;23;20208;-78
2022/02/18 07:52:20;;;;;;;25.30;12.43;;;8.30;99.90;;;;;;6235144;23;20197;-79
2022/02/18 07:54:47;;;;;;;26.27;12.17;;;8.30;99.90;;;;;;6234624;23;20173;-78
2022/02/18 07:57:14;;;;;;;24.43;12.30;;;8.30;99.90;;;;;;6235387;23;20185;-77
2022/02/18 07:59:41;;;;;;;25.20;13.30;;;8.30;99.90;;;;;;6235175;23;20165;-78
2022/02/18 08:02:08;;;;;;;28.97;13.83;;;8.30;99.90;;;;;;6234628;23;20197;-78
2022/02/18 08:04:34;;;;;;;24.77;12.33;;;8.40;99.90;;;;;;6235011;23;20837;-77
2022/02/18 08:07:03;;;;;;;22.70;11.50;;;8.40;99.90;;;;;;6235867;23;20177;-80
2022/02/18 08:09:30;;;;;;;26.20;12.60;;;8.40;99.90;;;;;;6191195;23;20478;-81
2022/02/18 08:11:57;;;;;;;24.33;12.53;;;8.50;99.90;;;;;;6175443;23;20182;-77
2022/02/18 08:14:24;;;;;;;25.80;12.17;;;8.50;99.90;;;;;;6235768;23;20252;-79
2022/02/18 08:16:51;;;;;;;19.40;11.90;;;8.50;99.90;;;;;;6235539;23;20174;-79
2022/02/18 08:19:20;;;;;;;19.80;11.97;;;8.60;99.90;;;;;;6234593;23;20188;-80
2022/02/18 08:21:47;;;;;;;18.80;11.67;;;8.60;99.90;;;;;;6233807;23;20174;-78
2022/02/18 08:24:18;;;;;;;20.03;11.50;;;8.70;99.90;;;;;;6234696;23;20491;-77
2022/02/18 08:26:45;;;;;;;21.33;12.20;;;8.70;99.90;;;;;;6227432;23;20247;-78
2022/02/18 08:29:11;;;;;;;18.87;12.00;;;8.80;99.90;;;;;;6233336;23;20158;-79
2022/02/18 08:31:38;;;;;;;19.67;12.90;;;8.80;99.90;;;;;;6235316;23;20197;-79
2022/02/18 08:34:05;;;;;;;19.57;12.57;;;8.80;99.90;;;;;;6233241;23;20173;-77
2022/02/18 08:36:35;;;;;;;15.90;11.60;;;8.90;99.90;;;;;;6235264;23;20173;-78
2022/02/18 08:39:01;;;;;;;20.50;12.83;;;8.90;99.90;;;;;;6233891;23;20219;-78
2022/02/18 08:41:29;;;;;;;19.67;13.00;;;9.00;99.90;;;;;;6234864;23;20471;-78
2022/02/18 08:43:58;;;;;;;17.13;11.67;;;9.00;99.90;;;;;;6235248;22;20203;-79
2022/02/18 08:46:25;;;;;;;21.33;12.63;;;9.00;99.90;;;;;;6233777;23;20648;-80
2022/02/18 08:48:52;;;;;;;17.10;11.13;;;9.10;99.90;;;;;;6234962;23;20177;-78
2022/02/18 08:51:19;;;;;;;21.17;12.83;;;9.20;99.90;;;;;;6235644;23;20174;-81
2022/02/18 08:53:45;;;;;;;20.13;12.53;;;9.30;99.90;;;;;;6234578;23;20178;-79
2022/02/18 08:56:12;;;;;;;19.93;12.07;;;9.30;99.90;;;;;;6235329;23;20178;-81
2022/02/18 08:58:41;;;;;;;19.30;12.50;;;9.40;99.90;;;;;;6236755;23;20178;-81
2022/02/18 09:01:08;;;;;;;20.00;13.73;;;9.40;99.90;;;;;;6234455;23;20185;-80
2022/02/18 09:03:34;;;;;;;19.10;13.03;;;9.40;99.90;;;;;;6235255;23;20201;-82
2022/02/18 09:06:01;;;;;;;17.47;12.67;;;9.50;99.90;;;;;;6233975;23;20180;-79
2022/02/18 09:08:28;;;;;;;22.60;13.30;;;9.60;99.90;;;;;;6234164;23;20189;-81
2022/02/18 09:10:56;;;;;;;23.00;12.20;;;9.60;99.90;;;;;;6234609;23;20177;-78
2022/02/18 09:13:25;;;;;;;15.20;11.40;;;9.70;99.90;;;;;;6235024;23;20202;-76
2022/02/18 09:15:54;;;;;;;20.87;11.87;;;9.80;99.90;;;;;;6233528;23;20668;-77
2022/02/18 09:18:21;;;;;;;21.33;10.73;;;9.80;99.90;;;;;;6234405;23;20255;-79
2022/02/18 09:20:48;;;;;;;14.87;10.80;;;9.90;99.90;;;;;;6233679;23;20181;-77
2022/02/18 09:23:15;;;;;;;17.20;10.67;;;10.00;99.90;;;;;;6232969;23;20173;-77
2022/02/18 09:25:42;;;;;;;18.47;11.20;;;10.00;99.90;;;;;;6233995;23;20177;-78
2022/02/18 09:28:09;;;;;;;19.60;10.60;;;10.00;99.90;;;;;;6233653;23;20173;-77
2022/02/18 09:30:46;;;;;;;17.57;10.10;;;10.10;99.90;;;;;;6233217;23;20166;-74
2022/02/18 09:33:16;;;;;;;16.63;9.20;;;10.10;99.90;;;;;;6233871;23;20189;-79
2022/02/18 09:35:43;;;;;;;19.43;8.97;;;10.20;99.90;;;;;;6230795;23;20178;-78
2022/02/18 09:38:12;;;;;;;14.13;8.67;;;10.20;99.90;;;;;;6233637;23;20288;-77
2022/02/18 09:40:40;;;;;;;13.23;8.43;;;10.20;99.90;;;;;;6233338;23;20177;-76
2022/02/18 09:43:07;;;;;;;14.77;8.03;;;10.30;99.90;;;;;;6232878;23;20188;-77
2022/02/18 09:45:35;;;;;;;15.13;7.67;;;10.30;99.90;;;;;;6234305;22;20212;-78
2022/02/18 09:48:02;;;;;;;10.83;5.93;;;10.40;99.90;;;;;;6233137;23;20192;-76
2022/02/18 09:50:31;;;;;;;12.77;6.00;;;10.40;99.90;;;;;;6233593;23;20200;-77
2022/02/18 09:52:58;;;;;;;9.20;5.00;;;10.50;99.90;;;;;;6234180;23;20229;-80
2022/02/18 09:55:25;;;;;;;10.33;5.70;;;10.50;99.90;;;;;;6234710;23;20192;-77
2022/02/18 09:57:54;;;;;;;10.63;4.67;;;10.50;99.90;;;;;;6233005;23;20185;-79
2022/02/18 10:00:22;;;;;;;9.27;4.57;;;10.50;99.90;;;;;;6233674;23;20260;-77
2022/02/18 10:02:50;;;;;;;6.57;3.80;;;10.60;99.90;;;;;;6233261;23;20197;-76
2022/02/18 10:05:17;;;;;;;8.87;3.80;;;10.70;99.90;;;;;;6231089;23;20173;-77
2022/02/18 10:08:05;;;;;;;7.43;3.90;;;10.70;99.90;;;;;;6234242;23;20180;-77
2022/02/18 10:10:32;;;;;;;6.10;3.60;;;10.80;99.90;;;;;;6234782;23;20264;-76
2022/02/18 10:12:59;;;;;;;7.67;3.17;;;10.90;99.90;;;;;;6232556;23;20216;-76
2022/02/18 10:15:26;;;;;;;7.93;3.60;;;11.00;99.90;;;;;;6233673;23;20250;-77
2022/02/18 10:17:59;;;;;;;7.13;2.63;;;11.10;99.90;;;;;;6233412;23;20489;-79
2022/02/18 10:20:29;;;;;;;6.57;2.87;;;11.10;99.90;;;;;;6233955;23;20227;-77
2022/02/18 10:22:58;;;;;;;5.17;2.70;;;11.20;99.90;;;;;;6234094;23;20176;-77
2022/02/18 10:25:28;;;;;;;6.40;2.70;;;11.20;99.90;;;;;;6233034;23;20843;-78
2022/02/18 10:27:55;;;;;;;8.60;2.67;;;11.20;99.90;;;;;;6233678;23;20437;-77
2022/02/18 10:30:23;;;;;;;7.00;2.60;;;11.20;99.90;;;;;;6234245;23;20414;-77
2022/02/18 10:32:51;;;;;;;5.73;3.13;;;11.30;99.90;;;;;;6233925;23;20505;-76
2022/02/18 10:35:19;;;;;;;4.93;2.70;;;11.30;99.90;;;;;;6233960;23;20211;-79
2022/02/18 10:37:53;;;;;;;6.97;2.37;;;11.40;99.90;;;;;;6234263;23;20215;-79
2022/02/18 10:40:20;;;;;;;4.57;2.20;;;11.30;99.90;;;;;;6233657;23;20535;-78
2022/02/18 10:42:50;;;;;;;7.67;2.20;;;11.40;99.90;;;;;;6233423;23;20170;-78
2022/02/18 10:45:19;;;;;;;4.87;2.20;;;11.40;99.90;;;;;;6234058;22;20470;-78
2022/02/18 10:47:47;;;;;;;2.90;1.53;;;11.40;99.90;;;;;;6233157;23;20276;-75
2022/02/18 10:50:16;;;;;;;3.43;1.90;;;11.40;99.90;;;;;;6236327;23;20177;-82
2022/02/18 10:52:43;;;;;;;7.37;2.10;;;11.40;99.90;;;;;;6234968;23;20197;-77
2022/02/18 10:55:11;;;;;;;5.00;1.97;;;11.40;99.90;;;;;;6233356;23;20177;-84
2022/02/18 10:57:38;;;;;;;6.17;2.00;;;11.40;99.90;;;;;;6234467;23;20180;-77
2022/02/18 11:00:16;;;;;;;3.43;1.80;;;11.50;99.90;;;;;;6234620;23;20169;-79
2022/02/18 11:02:48;;;;;;;5.83;1.53;;;11.50;99.90;;;;;;6233922;23;20208;-79
2022/02/18 11:05:25;;;;;;;5.97;2.33;;;11.50;99.90;;;;;;6234868;23;20229;-81
2022/02/18 11:07:53;;;;;;;5.67;2.20;;;11.50;99.90;;;;;;6234163;23;20173;-79
2022/02/18 11:10:34;;;;;;;9.13;2.33;;;11.40;99.90;;;;;;6235196;23;20550;-85
2022/02/18 11:13:00;;;;;;;5.33;2.27;;;11.40;99.90;;;;;;6234704;23;20204;-85
2022/02/18 11:15:29;;;;;;;10.70;2.20;;;11.30;99.90;;;;;;6237276;23;20169;-83
2022/02/18 11:17:57;;;;;;;8.30;2.17;;;11.20;99.90;;;;;;6237609;23;20173;-83
2022/02/18 11:20:25;;;;;;;13.10;2.47;;;11.20;99.90;;;;;;6238988;23;20227;-78
2022/02/18 11:22:54;;;;;;;11.27;2.33;;;11.20;99.90;;;;;;6237442;23;20520;-76
2022/02/18 11:25:21;;;;;;;26.67;4.53;;;11.20;99.90;;;;;;6207886;23;20178;-82
2022/02/18 11:27:48;;;;;;;17.67;3.43;;;11.10;99.90;;;;;;6208149;23;20181;-84
2022/02/18 11:30:15;;;;;;;16.47;4.40;;;11.00;99.90;;;;;;6205692;23;20185;-84
2022/02/18 11:33:01;;;;;;;18.87;4.10;;;10.90;99.90;;;;;;6207648;23;20194;-84
2022/02/18 11:35:49;;;;;;;20.37;3.80;;;10.80;99.90;;;;;;6207357;23;20202;-77
2022/02/18 11:38:38;;;;;;;18.47;4.10;;;10.80;99.90;;;;;;6207818;23;20170;-84
2022/02/18 11:41:19;;;;;;;21.87;4.73;;;10.80;99.90;;;;;;6207096;23;20166;-87
2022/02/18 11:43:47;;;;;;;16.13;3.30;;;10.80;99.90;;;;;;6205472;23;20162;-77
2022/02/18 11:46:23;;;;;;;23.47;4.30;;;10.80;99.90;;;;;;6205409;23;20563;-80
2022/02/18 11:48:53;;;;;;;21.90;5.37;;;10.80;99.90;;;;;;6206449;23;20547;-77
2022/02/18 11:51:23;;;;;;;22.63;4.30;;;10.80;99.90;;;;;;6206757;23;20426;-81
2022/02/18 11:53:51;;;;;;;17.53;3.80;;;10.80;99.90;;;;;;6207818;23;20206;-83
2022/02/18 11:56:39;;;;;;;26.27;5.17;;;10.70;99.90;;;;;;6207275;23;20177;-81
2022/02/18 11:59:07;;;;;;;18.40;4.83;;;10.70;99.90;;;;;;6206386;23;20170;-82
2022/02/18 12:02:04;;;;;;;27.53;6.27;;;10.70;99.90;;;;;;6207491;23;20232;-82
2022/02/18 12:04:33;;;;;;;18.60;4.90;;;10.70;99.90;;;;;;6207213;23;20221;-84
2022/02/18 12:07:30;;;;;;;27.73;6.83;;;10.60;99.90;;;;;;6206390;23;20627;-82
2022/02/18 12:10:07;;;;;;;27.90;6.87;;;10.60;99.90;;;;;;6206596;23;20443;-77
2022/02/18 12:12:35;;;;;;;27.90;5.93;;;10.60;99.90;;;;;;6206362;23;20179;-80
2022/02/18 12:15:13;;;;;;;39.30;6.63;;;10.60;99.90;;;;;;6205413;23;20178;-80
2022/02/18 12:17:42;;;;;;;28.97;5.97;;;10.50;99.90;;;;;;6207798;23;20181;-87
2022/02/18 12:20:17;;;;;;;29.63;5.87;;;10.50;99.90;;;;;;6206714;23;20178;-80
2022/02/18 12:22:45;;;;;;;33.83;7.50;;;10.50;99.90;;;;;;6206146;23;20931;-79
2022/02/18 12:25:27;;;;;;;32.10;7.30;;;10.40;99.90;;;;;;6205213;23;20178;-76
2022/02/18 12:27:55;;;;;;;31.60;7.23;;;10.50;99.90;;;;;;6201205;23;20174;-76
2022/02/18 12:30:45;;;;;;;30.40;6.97;;;10.40;99.90;;;;;;6204711;23;20170;-78
2022/02/18 12:33:12;;;;;;;29.57;6.47;;;10.40;99.90;;;;;;6206099;23;20194;-79
2022/02/18 12:35:40;;;;;;;44.63;8.70;;;10.40;99.90;;;;;;6205811;23;20178;-76
2022/02/18 12:38:10;;;;;;;28.13;7.37;;;10.40;99.90;;;;;;6205316;23;20272;-76
2022/02/18 12:40:39;;;;;;;33.47;8.23;;;10.30;99.90;;;;;;6204686;23;20209;-77
2022/02/18 12:43:11;;;;;;;38.30;8.17;;;10.30;99.90;;;;;;6205459;23;20171;-81
2022/02/18 12:45:50;;;;;;;28.00;7.73;;;10.30;99.90;;;;;;6205676;23;20828;-80
2022/02/18 12:48:30;;;;;;;42.97;7.20;;;10.30;99.90;;;;;;6206166;23;20240;-79